Makkovik, Canada
Current Conditions -  °F | °C
As of 3:00 AM on Saturday 20 Dec 2014 (Local Time) from CWCA Reporting Station
Light Snow Light Snow  
Wind Chill:   Ceiling: 1600
Heat Index: 21°   Visibility: 15mi
Dew Point: 16°   Wind: 12mph
Humidity: 80%   Direction: 300°WNW
Pressure: 30.13"   Gusts: 21mph
Location:  55.08°N, 59.18°W
Report Text: CWCA 200700Z 30010G18KT 15SM -SN BKN016 OVC070 M06/M09 A3013 RMK SC6AS2 SLP203
Loading
Personal Weather Stations






























Interactive Weather Map New forecast layout! Learn more

10-Day Weather Forecast

Advertisements
Track Severe Weather on mobile